| time (UTC) | temp C | wind direction | speed KPH | gust KPH | rain 1hr cm | rain 24hr cm | rain mn cm | humidity % | barometer mb |
| 20260505070052 | 17 | 0 | 0.0 | 3.2 | 0.00 | 0.00 | 0.00 | 74 | 1007.7 |
| 20260505064552 | 18 | 162 | 1.6 | 4.8 | 0.00 | 0.00 | 0.00 | 73 | 1007.8 |
| 20260505063051 | 18 | 0 | 0.0 | 4.8 | 0.00 | 0.00 | 0.00 | 72 | 1008.1 |
| 20260505061556 | 18 | 149 | 1.6 | 4.8 | 0.00 | 0.00 | 0.00 | 71 | 1008.2 |
| 20260505060056 | 18 | 145 | 1.6 | 4.8 | 0.00 | 0.00 | 0.00 | 71 | 1008.7 |
| 20260505054611 | 18 | 168 | 1.6 | 4.8 | 0.00 | 0.00 | 0.00 | 71 | 1008.8 |
| 20260505053108 | 18 | 169 | 1.6 | 3.2 | 0.00 | 0.00 | 0.00 | 72 | 1008.9 |
| 20260505051552 | 18 | 146 | 0.0 | 4.8 | 0.00 | 0.00 | 0.00 | 72 | 1009.0 |
| 20260505041557 | 19 | 0 | 0.0 | 1.6 | 0.00 | 0.00 | 0.00 | 69 | 1009.0 |
| 20260505040056 | 19 | 169 | 0.0 | 4.8 | 0.00 | 0.00 | 0.00 | 69 | 1009.1 |
| 20260505034554 | 19 | 153 | 1.6 | 6.4 | 0.00 | 0.00 | 0.00 | 69 | 1009.1 |
| 20260505033052 | 19 | 173 | 1.6 | 4.8 | 0.00 | 0.00 | 0.00 | 69 | 1009.1 |
| 20260505031607 | 19 | 160 | 1.6 | 4.8 | 0.00 | 0.00 | 0.00 | 69 | 1009.2 |
| 20260505030053 | 19 | 169 | 0.0 | 3.2 | 0.00 | 0.00 | 0.00 | 69 | 1009.0 |
| 20260505024552 | 20 | 0 | 0.0 | 1.6 | 0.00 | 0.00 | 0.00 | 69 | 1008.9 |
| 20260505023108 | 20 | 145 | 0.0 | 1.6 | 0.00 | 0.00 | 0.00 | 67 | 1008.7 |
| 20260505021552 | 20 | 155 | 0.0 | 1.6 | 0.00 | 0.00 | 0.00 | 66 | 1008.7 |
| 20260505020054 | 20 | 150 | 0.0 | 1.6 | 0.00 | 0.00 | 0.00 | 65 | 1008.4 |
| 20260505014601 | 21 | 142 | 0.0 | 1.6 | 0.00 | 0.00 | 0.00 | 64 | 1008.0 |
| 20260505013106 | 21 | 148 | 0.0 | 3.2 | 0.00 | 0.00 | 0.00 | 63 | 1007.9 |
| 20260505011554 | 21 | 0 | 0.0 | 1.6 | 0.00 | 0.00 | 0.00 | 63 | 1007.6 |
| 20260505010052 | 22 | 0 | 0.0 | 1.6 | 0.00 | 0.00 | 0.00 | 61 | 1007.4 |
| 20260505004557 | 22 | 146 | 0.0 | 3.2 | 0.00 | 0.00 | 0.00 | 60 | 1007.5 |
| 20260505003051 | 23 | 143 | 0.0 | 6.4 | 0.00 | 0.00 | 0.00 | 58 | 1007.4 |
| 20260505001555 | 23 | 210 | 3.2 | 6.4 | 0.00 | 0.00 | 0.00 | 57 | 1007.5 |
| 20260505000112 | 23 | 169 | 1.6 | 6.4 | 0.00 | 0.00 | 0.00 | 56 | 1007.6 |
| 20260504234554 | 24 | 179 | 1.6 | 11.3 | 0.00 | 0.00 | 0.00 | 55 | 1007.7 |
| 20260504233055 | 24 | 134 | 3.2 | 11.3 | 0.00 | 0.00 | 0.00 | 53 | 1007.8 |
| 20260504231553 | 24 | 181 | 4.8 | 17.7 | 0.00 | 0.00 | 0.00 | 52 | 1008.1 |
| 20260504230105 | 25 | 154 | 3.2 | 12.9 | 0.00 | 0.00 | 0.00 | 51 | 1008.2 |
| 20260504224552 | 25 | 130 | 3.2 | 14.5 | 0.00 | 0.00 | 0.00 | 51 | 1008.1 |
| 20260504223104 | 25 | 0 | 1.6 | 14.5 | 0.00 | 0.00 | 0.00 | 52 | 1008.1 |
| 20260504221603 | 25 | 165 | 8.0 | 14.5 | 0.00 | 0.00 | 0.00 | 50 | 1008.3 |
| 20260504220059 | 26 | 146 | 6.4 | 17.7 | 0.00 | 0.00 | 0.00 | 48 | 1008.6 |
| 20260504214556 | 26 | 167 | 4.8 | 17.7 | 0.00 | 0.00 | 0.00 | 48 | 1008.4 |
| 20260504213054 | 26 | 166 | 1.6 | 12.9 | 0.00 | 0.00 | 0.00 | 51 | 1008.6 |
| 20260504211550 | 26 | 175 | 8.0 | 16.1 | 0.00 | 0.00 | 0.00 | 47 | 1008.8 |
| 20260504210055 | 26 | 211 | 9.7 | 16.1 | 0.00 | 0.00 | 0.00 | 48 | 1008.9 |
| 20260504204600 | 27 | 207 | 1.6 | 14.5 | 0.00 | 0.00 | 0.00 | 47 | 1009.0 |
| 20260504203106 | 27 | 139 | 4.8 | 16.1 | 0.00 | 0.00 | 0.00 | 46 | 1009.3 |
| 20260504201551 | 27 | 212 | 4.8 | 24.1 | 0.00 | 0.00 | 0.00 | 48 | 1009.4 |
| 20260504200052 | 27 | 155 | 6.4 | 17.7 | 0.00 | 0.00 | 0.00 | 47 | 1009.8 |
| 20260504194549 | 27 | 160 | 8.0 | 16.1 | 0.00 | 0.00 | 0.00 | 47 | 1009.9 |
| 20260504193054 | 26 | 156 | 6.4 | 19.3 | 0.00 | 0.00 | 0.00 | 47 | 1009.8 |
| 20260504191602 | 26 | 148 | 6.4 | 20.9 | 0.00 | 0.00 | 0.00 | 48 | 1010.1 |
| 20260504190100 | 27 | 161 | 6.4 | 14.5 | 0.00 | 0.00 | 0.00 | 46 | 1010.2 |
| 20260504184551 | 26 | 160 | 6.4 | 16.1 | 0.00 | 0.00 | 0.00 | 49 | 1010.2 |
| 20260504183059 | 26 | 201 | 4.8 | 14.5 | 0.00 | 0.00 | 0.00 | 49 | 1010.3 |
| 20260504181558 | 26 | 140 | 4.8 | 11.3 | 0.00 | 0.00 | 0.00 | 48 | 1010.3 |
| 20260504174556 | 26 | 168 | 8.0 | 17.7 | 0.00 | 0.00 | 0.00 | 47 | 1011.0 |
| 20260504173052 | 26 | 169 | 4.8 | 16.1 | 0.00 | 0.00 | 0.00 | 47 | 1011.2 |
| 20260504171555 | 26 | 243 | 3.2 | 16.1 | 0.00 | 0.00 | 0.00 | 48 | 1011.3 |
| 20260504081555 | 16 | 0 | 0.0 | 0.0 | 0.00 | 0.00 | 0.00 | 77 | 1012.5 |